createdAt,value
2019-04-03T00:00:49.885Z,100.00
2019-04-03T00:03:54.877Z,100.00
2019-04-03T00:06:21.940Z,100.00
2019-04-03T00:08:49.024Z,100.00
2019-04-03T00:11:16.070Z,100.00
2019-04-03T00:13:43.193Z,100.00
2019-04-03T00:16:10.464Z,100.00
2019-04-03T00:18:37.559Z,100.00
2019-04-03T00:21:04.599Z,100.00
2019-04-03T00:23:31.708Z,100.00
2019-04-03T00:25:58.771Z,100.00
2019-04-03T00:28:25.868Z,100.00
2019-04-03T00:30:53.394Z,100.00
2019-04-03T00:33:22.966Z,100.00
2019-04-03T00:35:49.536Z,100.00
2019-04-03T00:38:16.585Z,100.00
2019-04-03T00:40:43.653Z,100.00
2019-04-03T00:43:33.720Z,100.00
2019-04-03T00:46:00.895Z,100.00
2019-04-03T00:48:28.038Z,100.00
2019-04-03T00:50:57.292Z,100.00
2019-04-03T00:53:24.282Z,100.00
2019-04-03T00:55:51.555Z,100.00
2019-04-03T00:58:39.497Z,100.00
2019-04-03T01:01:10.600Z,100.00
2019-04-03T01:03:38.435Z,100.00
2019-04-03T01:06:06.058Z,100.00
2019-04-03T01:08:33.097Z,100.00
2019-04-03T01:11:00.470Z,100.00
2019-04-03T01:13:28.031Z,100.00
2019-04-03T01:15:55.104Z,100.00
2019-04-03T01:18:22.142Z,100.00
2019-04-03T01:20:49.244Z,100.00
2019-04-03T01:23:16.357Z,100.00
2019-04-03T01:25:43.419Z,100.00
2019-04-03T01:28:11.717Z,100.00
2019-04-03T01:30:39.205Z,100.00
2019-04-03T01:33:06.268Z,100.00
2019-04-03T01:35:33.369Z,100.00
2019-04-03T01:38:00.421Z,100.00
2019-04-03T01:40:48.919Z,100.00
2019-04-03T01:43:17.405Z,100.00
2019-04-03T01:45:44.480Z,100.00
2019-04-03T01:48:11.612Z,100.00
2019-04-03T01:50:38.771Z,100.00
2019-04-03T01:53:05.853Z,100.00
2019-04-03T01:55:34.535Z,100.00
2019-04-03T01:58:02.049Z,100.00
2019-04-03T02:00:29.273Z,100.00
2019-04-03T02:02:56.502Z,100.00
2019-04-03T02:05:23.991Z,100.00
2019-04-03T02:07:51.100Z,100.00
2019-04-03T02:10:21.958Z,100.00
2019-04-03T02:12:51.224Z,100.00
2019-04-03T02:15:19.562Z,100.00
2019-04-03T02:18:05.572Z,100.00
2019-04-03T02:20:32.936Z,100.00
2019-04-03T02:23:00.582Z,100.00
2019-04-03T02:25:31.531Z,100.00
2019-04-03T02:27:57.824Z,100.00
2019-04-03T02:30:25.154Z,100.00
2019-04-03T02:32:55.078Z,100.00
2019-04-03T02:35:22.429Z,100.00
2019-04-03T02:37:51.503Z,100.00
2019-04-03T02:40:18.927Z,100.00
2019-04-03T02:42:46.049Z,100.00
2019-04-03T02:45:13.331Z,100.00
2019-04-03T02:47:40.420Z,100.00
2019-04-03T02:50:07.510Z,100.00
2019-04-03T02:52:35.090Z,100.00
2019-04-03T02:55:06.975Z,100.00
2019-04-03T02:57:31.512Z,100.00
2019-04-03T03:00:00.158Z,100.00
2019-04-03T03:02:27.711Z,100.00
2019-04-03T03:04:55.605Z,100.00
2019-04-03T03:07:22.776Z,100.00
2019-04-03T03:09:51.990Z,100.00
2019-04-03T03:12:19.150Z,100.00
2019-04-03T03:14:46.735Z,100.00
2019-04-03T03:17:15.593Z,100.00
2019-04-03T03:19:42.983Z,100.00
2019-04-03T03:22:10.837Z,100.00
2019-04-03T03:24:38.109Z,100.00
2019-04-03T03:27:24.118Z,100.00
2019-04-03T03:29:53.209Z,100.00
2019-04-03T03:32:28.913Z,100.00
2019-04-03T03:34:57.879Z,100.00
2019-04-03T03:37:21.242Z,100.00
2019-04-03T03:39:48.654Z,100.00
2019-04-03T03:42:16.299Z,100.00
2019-04-03T03:44:45.937Z,100.00
2019-04-03T03:47:13.656Z,100.00
2019-04-03T03:49:41.112Z,100.00
2019-04-03T03:52:08.783Z,100.00
2019-04-03T03:54:35.903Z,100.00
2019-04-03T03:57:04.735Z,100.00
2019-04-03T03:59:33.072Z,100.00
2019-04-03T04:02:03.480Z,100.00
2019-04-03T04:04:29.502Z,100.00
2019-04-03T04:06:57.526Z,100.00
2019-04-03T04:09:24.772Z,100.00
2019-04-03T04:12:09.949Z,100.00
2019-04-03T04:14:37.312Z,100.00
2019-04-03T04:17:08.421Z,100.00
2019-04-03T04:19:34.799Z,100.00
2019-04-03T04:22:02.361Z,100.00
2019-04-03T04:24:29.792Z,100.00
2019-04-03T04:26:56.891Z,100.00
2019-04-03T04:29:24.003Z,100.00
2019-04-03T04:31:52.596Z,100.00
2019-04-03T04:34:19.684Z,100.00
2019-04-03T04:36:46.805Z,100.00
2019-04-03T04:39:13.936Z,100.00
2019-04-03T04:41:41.041Z,100.00
2019-04-03T04:44:09.894Z,100.00
2019-04-03T04:46:37.309Z,100.00
2019-04-03T04:49:04.560Z,100.00
2019-04-03T04:51:31.674Z,100.00
2019-04-03T04:53:59.492Z,100.00
2019-04-03T04:56:27.203Z,100.00
2019-04-03T04:58:54.252Z,100.00
2019-04-03T05:01:21.302Z,100.00
2019-04-03T05:03:48.559Z,100.00
2019-04-03T05:06:15.715Z,100.00
2019-04-03T05:08:42.780Z,100.00
2019-04-03T05:11:09.855Z,100.00
2019-04-03T05:13:36.936Z,100.00
2019-04-03T05:16:04.130Z,100.00
2019-04-03T05:18:50.338Z,100.00
2019-04-03T05:21:21.745Z,100.00
2019-04-03T05:23:48.734Z,100.00
2019-04-03T05:26:15.808Z,100.00
2019-04-03T05:28:54.351Z,100.00
2019-04-03T05:31:12.067Z,100.00
2019-04-03T05:33:41.134Z,100.00
2019-04-03T05:36:08.169Z,100.00
2019-04-03T05:38:37.682Z,100.00
2019-04-03T05:41:04.225Z,100.00
2019-04-03T05:43:32.749Z,100.00
2019-04-03T05:46:00.050Z,100.00
2019-04-03T05:48:27.203Z,100.00
2019-04-03T05:50:54.354Z,100.00
2019-04-03T05:53:21.746Z,100.00
2019-04-03T05:55:48.933Z,100.00
2019-04-03T05:58:16.723Z,100.00
2019-04-03T06:00:44.078Z,100.00
2019-04-03T06:03:11.343Z,100.00
2019-04-03T06:05:38.834Z,100.00
2019-04-03T06:08:06.156Z,100.00
2019-04-03T06:10:37.437Z,100.00
2019-04-03T06:13:06.202Z,100.00
2019-04-03T06:15:33.419Z,100.00
2019-04-03T06:18:00.569Z,100.00
2019-04-03T06:20:27.666Z,100.00
2019-04-03T06:22:54.750Z,100.00
2019-04-03T06:25:21.962Z,100.00
2019-04-03T06:27:49.053Z,100.00
2019-04-03T06:30:16.722Z,100.00
2019-04-03T06:32:44.439Z,100.00
2019-04-03T06:35:13.353Z,100.00
2019-04-03T06:37:40.643Z,100.00
2019-04-03T06:40:07.819Z,100.00
2019-04-03T06:42:34.937Z,100.00
2019-04-03T06:45:04.304Z,100.00
2019-04-03T06:47:32.172Z,100.00
2019-04-03T06:50:22.452Z,100.00
2019-04-03T06:52:49.629Z,100.00
2019-04-03T06:55:16.981Z,100.00
2019-04-03T06:57:44.176Z,100.00
2019-04-03T07:00:11.389Z,100.00
2019-04-03T07:02:38.690Z,100.00
2019-04-03T07:05:06.197Z,100.00
2019-04-03T07:07:35.443Z,100.00
2019-04-03T07:10:04.225Z,100.00
2019-04-03T07:12:31.927Z,100.00
2019-04-03T07:14:59.133Z,100.00
2019-04-03T07:17:26.248Z,100.00
2019-04-03T07:19:53.307Z,100.00
2019-04-03T07:22:20.803Z,100.00
2019-04-03T07:24:48.108Z,100.00
2019-04-03T07:27:16.538Z,100.00
2019-04-03T07:29:43.617Z,100.00
2019-04-03T07:32:10.774Z,100.00
2019-04-03T07:34:37.876Z,100.00
2019-04-03T07:37:04.945Z,100.00
2019-04-03T07:39:32.369Z,100.00
2019-04-03T07:41:59.570Z,100.00
2019-04-03T07:44:27.652Z,100.00
2019-04-03T07:46:55.728Z,100.00
2019-04-03T07:49:22.851Z,100.00
2019-04-03T07:51:50.045Z,100.00
2019-04-03T07:54:17.159Z,100.00
2019-04-03T07:56:44.393Z,100.00
2019-04-03T07:59:11.774Z,100.00
2019-04-03T08:01:41.295Z,100.00
2019-04-03T08:04:10.698Z,100.00
2019-04-03T08:06:38.084Z,100.00
2019-04-03T08:09:09.737Z,100.00
2019-04-03T08:11:37.319Z,100.00
2019-04-03T08:14:04.963Z,100.00
2019-04-03T08:16:32.314Z,100.00
2019-04-03T08:18:59.428Z,100.00
2019-04-03T08:21:29.463Z,100.00
2019-04-03T08:23:55.519Z,100.00
2019-04-03T08:26:22.593Z,100.00
2019-04-03T08:28:49.720Z,100.00
2019-04-03T08:31:16.792Z,100.00
2019-04-03T08:33:44.143Z,100.00
2019-04-03T08:36:23.107Z,100.00
2019-04-03T08:38:40.184Z,100.00
2019-04-03T08:41:07.517Z,100.00
2019-04-03T08:43:34.921Z,100.00
2019-04-03T08:46:01.977Z,100.00
2019-04-03T08:48:29.493Z,100.00
2019-04-03T08:50:58.171Z,100.00
2019-04-03T08:53:25.677Z,100.00
2019-04-03T08:55:53.460Z,100.00
2019-04-03T08:58:23.602Z,100.00
2019-04-03T09:00:50.999Z,100.00
2019-04-03T09:03:18.391Z,100.00
2019-04-03T09:05:45.444Z,100.00
2019-04-03T09:08:19.924Z,100.00
2019-04-03T09:10:46.998Z,100.00
2019-04-03T09:13:18.042Z,100.00
2019-04-03T09:15:44.109Z,100.00
2019-04-03T09:18:11.219Z,100.00
2019-04-03T09:20:38.294Z,100.00
2019-04-03T09:23:05.430Z,100.00
2019-04-03T09:25:33.022Z,100.00
2019-04-03T09:28:00.242Z,100.00
2019-04-03T09:30:27.641Z,100.00
2019-04-03T09:32:54.734Z,100.00
2019-04-03T09:35:22.165Z,100.00
2019-04-03T09:37:50.387Z,100.00
2019-04-03T09:40:18.272Z,100.00
2019-04-03T09:42:45.586Z,100.00
2019-04-03T09:45:33.802Z,100.00
2019-04-03T09:48:14.841Z,100.00
2019-04-03T09:50:42.195Z,100.00
2019-04-03T09:53:09.288Z,100.00
2019-04-03T09:55:37.588Z,100.00
2019-04-03T09:58:05.302Z,100.00
2019-04-03T10:00:32.389Z,100.00
2019-04-03T10:02:59.642Z,100.00
2019-04-03T10:05:29.002Z,100.00
2019-04-03T10:07:56.063Z,100.00
2019-04-03T10:10:25.615Z,100.00
2019-04-03T10:12:54.212Z,100.00
2019-04-03T10:15:21.434Z,100.00
2019-04-03T10:17:49.005Z,100.00
2019-04-03T10:20:17.623Z,100.00
2019-04-03T10:22:45.393Z,100.00
2019-04-03T10:25:12.741Z,100.00
2019-04-03T10:27:42.619Z,100.00
2019-04-03T10:30:10.995Z,100.00
2019-04-03T10:32:38.458Z,100.00
2019-04-03T10:35:07.313Z,100.00
2019-04-03T10:37:35.060Z,100.00
2019-04-03T10:40:02.130Z,100.00
2019-04-03T10:42:31.271Z,100.00
2019-04-03T10:44:59.002Z,100.00
2019-04-03T10:47:39.369Z,100.00
2019-04-03T10:49:55.388Z,100.00
2019-04-03T10:52:22.645Z,100.00
2019-04-03T10:54:49.674Z,100.00
2019-04-03T10:57:16.762Z,100.00
2019-04-03T10:59:43.836Z,100.00
2019-04-03T11:02:10.985Z,100.00
2019-04-03T11:04:38.436Z,100.00
2019-04-03T11:07:05.753Z,100.00
2019-04-03T11:09:33.408Z,100.00
2019-04-03T11:12:01.349Z,100.00
2019-04-03T11:14:29.270Z,100.00
2019-04-03T11:16:56.835Z,100.00
2019-04-03T11:19:24.290Z,100.00
2019-04-03T11:21:51.404Z,100.00
2019-04-03T11:24:18.483Z,100.00
2019-04-03T11:27:25.075Z,100.00
2019-04-03T11:29:51.589Z,100.00
2019-04-03T11:32:18.751Z,100.00
2019-04-03T11:34:48.891Z,100.00
2019-04-03T11:37:15.027Z,100.00
2019-04-03T11:39:42.116Z,100.00
2019-04-03T11:42:09.195Z,100.00
2019-04-03T11:44:36.247Z,100.00
2019-04-03T11:47:03.543Z,100.00
2019-04-03T11:49:30.728Z,100.00
2019-04-03T11:51:58.979Z,100.00
2019-04-03T11:54:26.846Z,100.00
2019-04-03T11:56:56.405Z,100.00
2019-04-03T11:59:24.053Z,100.00
2019-04-03T12:01:52.587Z,100.00
2019-04-03T12:04:19.649Z,100.00
2019-04-03T12:06:46.773Z,100.00
2019-04-03T12:09:13.967Z,100.00
2019-04-03T12:11:41.221Z,100.00
2019-04-03T12:14:08.482Z,100.00
2019-04-03T12:16:35.871Z,100.00
2019-04-03T12:19:05.447Z,100.00
2019-04-03T12:21:33.722Z,100.00
2019-04-03T12:24:00.876Z,100.00
2019-04-03T12:26:28.029Z,100.00
2019-04-03T12:28:55.146Z,100.00
2019-04-03T12:31:22.540Z,99.04
2019-04-03T12:33:56.449Z,97.17
2019-04-03T12:36:18.594Z,96.01
2019-04-03T12:38:47.728Z,94.68
2019-04-03T12:41:14.808Z,93.80
2019-04-03T12:43:41.910Z,94.07
2019-04-03T12:46:08.963Z,93.63
2019-04-03T12:48:36.017Z,94.03
2019-04-03T12:51:03.319Z,92.91
2019-04-03T12:53:30.437Z,91.88
2019-04-03T12:55:59.601Z,90.35
2019-04-03T12:58:26.843Z,88.47
2019-04-03T13:00:54.358Z,88.18
2019-04-03T13:03:23.911Z,86.88
2019-04-03T13:05:50.876Z,86.73
2019-04-03T13:08:19.605Z,86.67
2019-04-03T13:10:48.971Z,86.35
2019-04-03T13:13:16.147Z,85.74
2019-04-03T13:15:43.402Z,84.80
2019-04-03T13:18:10.445Z,85.17
2019-04-03T13:20:38.159Z,85.18
2019-04-03T13:23:05.277Z,84.52
2019-04-03T13:25:32.532Z,83.95
2019-04-03T13:28:03.210Z,82.26
2019-04-03T13:31:12.931Z,82.16
2019-04-03T13:33:41.105Z,81.06
2019-04-03T13:36:08.551Z,81.98
2019-04-03T13:38:35.822Z,81.40
2019-04-03T13:41:05.188Z,81.28
2019-04-03T13:43:32.091Z,81.47
2019-04-03T13:45:59.189Z,81.21
2019-04-03T13:48:26.418Z,81.42
2019-04-03T13:50:54.843Z,81.64
2019-04-03T13:53:25.092Z,81.47
2019-04-03T13:55:51.495Z,81.43
2019-04-03T13:58:20.564Z,81.77
2019-04-03T14:00:58.614Z,81.71
2019-04-03T14:03:18.457Z,81.45
2019-04-03T14:05:45.730Z,80.16
2019-04-03T14:08:13.495Z,79.12
2019-04-03T14:10:40.861Z,78.22
2019-04-03T14:13:10.754Z,78.34
2019-04-03T14:15:36.972Z,79.95
2019-04-03T14:18:04.032Z,80.61
2019-04-03T14:20:31.086Z,81.05
2019-04-03T14:23:02.892Z,81.21
2019-04-03T14:25:47.505Z,81.34
2019-04-03T14:28:35.448Z,81.41
2019-04-03T14:31:33.088Z,80.98
2019-04-03T14:34:10.656Z,81.83
2019-04-03T14:36:58.807Z,81.54
2019-04-03T14:39:47.495Z,81.82
2019-04-03T14:42:36.240Z,82.88
2019-04-03T14:45:22.128Z,83.18
2019-04-03T14:48:11.010Z,83.18
2019-04-03T15:01:33.097Z,82.91
2019-04-03T15:04:08.751Z,82.98
2019-04-03T15:06:44.200Z,81.63
2019-04-03T15:09:18.884Z,81.95
2019-04-03T15:11:57.185Z,81.03
2019-04-03T15:14:38.504Z,81.59
2019-04-03T15:17:21.406Z,82.03
2019-04-03T15:20:00.812Z,82.23
2019-04-03T15:22:42.580Z,82.76
2019-04-03T15:25:24.968Z,83.60
2019-04-03T15:28:09.471Z,83.36
2019-04-03T15:30:48.413Z,83.37
2019-04-03T15:33:31.865Z,84.47
2019-04-03T15:36:10.518Z,84.58
2019-04-03T15:38:53.439Z,84.40
2019-04-03T15:41:34.178Z,83.91
2019-04-03T15:44:15.380Z,84.17
2019-04-03T15:46:53.183Z,84.05
2019-04-03T15:49:39.229Z,84.12
2019-04-03T15:52:07.207Z,84.03
2019-04-03T15:54:34.328Z,83.66
2019-04-03T15:57:01.394Z,84.03
2019-04-03T15:59:29.812Z,84.72
2019-04-03T16:01:58.049Z,84.65
2019-04-03T16:04:27.059Z,84.98
2019-04-03T16:06:54.364Z,84.43
2019-04-03T16:09:22.602Z,84.96
2019-04-03T16:11:49.636Z,85.36
2019-04-03T16:14:19.914Z,86.26
2019-04-03T16:16:45.928Z,86.41
2019-04-03T16:19:12.972Z,86.35
2019-04-03T16:21:40.499Z,85.91
2019-04-03T16:24:11.378Z,86.11
2019-04-03T16:26:37.014Z,86.37
2019-04-03T16:29:06.613Z,86.53
2019-04-03T16:31:33.742Z,86.56
2019-04-03T16:34:01.034Z,86.64
2019-04-03T16:36:28.225Z,87.37
2019-04-03T16:38:55.317Z,87.86
2019-04-03T16:41:22.403Z,88.43
2019-04-03T16:43:49.691Z,88.45
2019-04-03T16:46:17.275Z,88.73
2019-04-03T16:48:45.612Z,88.77
2019-04-03T16:51:14.448Z,89.32
2019-04-03T16:53:41.792Z,89.18
2019-04-03T16:56:09.433Z,89.47
2019-04-03T16:58:37.182Z,90.14
2019-04-03T17:01:04.585Z,90.18
2019-04-03T17:03:33.047Z,90.33
2019-04-03T17:06:02.100Z,91.24
2019-04-03T17:08:29.404Z,91.69
2019-04-03T17:10:56.591Z,91.73
2019-04-03T17:13:23.856Z,91.97
2019-04-03T17:15:51.304Z,92.28
2019-04-03T17:18:19.947Z,93.00
2019-04-03T17:20:49.694Z,94.07
2019-04-03T17:23:16.044Z,94.88
2019-04-03T17:25:48.105Z,95.42
2019-04-03T17:28:12.808Z,96.11
2019-04-03T17:30:40.122Z,96.68
2019-04-03T17:33:08.517Z,96.46
2019-04-03T17:35:35.713Z,96.50
2019-04-03T17:38:03.157Z,96.74
2019-04-03T17:40:30.190Z,97.23
2019-04-03T17:42:57.286Z,97.55
2019-04-03T17:45:24.509Z,97.99
2019-04-03T17:47:53.849Z,98.08
2019-04-03T17:50:20.526Z,98.59
2019-04-03T17:52:53.509Z,98.56
2019-04-03T17:55:20.586Z,98.51
2019-04-03T17:57:47.760Z,98.10
2019-04-03T18:00:20.482Z,97.62
2019-04-03T18:02:46.652Z,97.73
2019-04-03T18:05:14.010Z,97.68
2019-04-03T18:07:41.154Z,97.39
2019-04-03T18:10:12.488Z,96.80
2019-04-03T18:12:37.877Z,96.79
2019-04-03T18:15:06.235Z,96.60
2019-04-03T18:17:34.383Z,96.26
2019-04-03T18:20:01.445Z,96.53
2019-04-03T18:22:28.580Z,96.50
2019-04-03T18:24:55.821Z,96.02
2019-04-03T18:27:22.959Z,95.91
2019-04-03T18:29:50.245Z,96.57
2019-04-03T18:32:17.385Z,96.87
2019-04-03T18:34:44.544Z,96.63
2019-04-03T18:37:11.680Z,95.85
2019-04-03T18:39:40.247Z,95.36
2019-04-03T18:42:07.735Z,95.26
2019-04-03T18:44:34.896Z,94.81
2019-04-03T18:47:01.978Z,95.04
2019-04-03T18:49:30.599Z,95.14
2019-04-03T18:51:58.150Z,95.77
2019-04-03T18:54:25.349Z,96.84
2019-04-03T18:56:52.429Z,97.43
2019-04-03T18:59:19.880Z,97.55
2019-04-03T19:01:47.179Z,97.94
2019-04-03T19:04:14.276Z,97.98
2019-04-03T19:06:42.963Z,98.26
2019-04-03T19:09:49.916Z,98.61
2019-04-03T19:12:18.859Z,98.65
2019-04-03T19:14:47.162Z,98.61
2019-04-03T19:17:14.299Z,99.03
2019-04-03T19:19:41.506Z,99.52
2019-04-03T19:22:08.708Z,99.59
2019-04-03T19:24:37.391Z,98.97
2019-04-03T19:27:04.470Z,98.51
2019-04-03T19:29:31.706Z,98.73
2019-04-03T19:32:17.504Z,98.88
2019-04-03T19:34:44.593Z,99.34
2019-04-03T19:37:12.996Z,99.64
2019-04-03T19:39:40.105Z,99.99
2019-04-03T19:42:07.315Z,100.00
2019-04-03T19:44:34.557Z,100.00
2019-04-03T19:47:04.065Z,100.00
2019-04-03T19:49:31.181Z,100.00
2019-04-03T19:51:58.230Z,100.00
2019-04-03T19:54:25.713Z,100.00
2019-04-03T19:56:52.799Z,100.00
2019-04-03T19:59:19.884Z,100.00
2019-04-03T20:01:49.205Z,100.00
2019-04-03T20:04:34.650Z,100.00
2019-04-03T20:07:01.791Z,100.00
2019-04-03T20:09:31.933Z,100.00
2019-04-03T20:11:57.998Z,100.00
2019-04-03T20:14:25.068Z,100.00
2019-04-03T20:16:54.481Z,100.00
2019-04-03T20:19:21.736Z,100.00
2019-04-03T20:21:48.883Z,100.00
2019-04-03T20:24:16.608Z,100.00
2019-04-03T20:26:46.691Z,100.00
2019-04-03T20:29:14.592Z,100.00
2019-04-03T20:31:41.775Z,100.00
2019-04-03T20:34:08.910Z,100.00
2019-04-03T20:36:56.283Z,100.00
2019-04-03T20:39:23.400Z,100.00
2019-04-03T20:41:50.466Z,100.00
2019-04-03T20:44:17.613Z,100.00
2019-04-03T20:46:44.716Z,100.00
2019-04-03T20:49:11.789Z,100.00
2019-04-03T20:51:39.882Z,100.00
2019-04-03T20:54:07.686Z,100.00
2019-04-03T20:56:34.792Z,100.00
2019-04-03T20:59:02.007Z,100.00
2019-04-03T21:01:29.208Z,100.00
2019-04-03T21:03:56.431Z,100.00
2019-04-03T21:06:23.884Z,100.00
2019-04-03T21:09:36.902Z,100.00
2019-04-03T21:12:05.084Z,100.00
2019-04-03T21:14:34.149Z,100.00
2019-04-03T21:17:01.215Z,100.00
2019-04-03T21:19:46.609Z,100.00
2019-04-03T21:22:13.873Z,100.00
2019-04-03T21:24:40.936Z,100.00
2019-04-03T21:27:09.301Z,100.00
2019-04-03T21:30:25.295Z,100.00
2019-04-03T21:32:52.392Z,100.00
2019-04-03T21:35:20.115Z,100.00
2019-04-03T21:37:47.176Z,100.00
2019-04-03T21:40:15.835Z,100.00
2019-04-03T21:42:43.069Z,100.00
2019-04-03T21:45:10.648Z,100.00
2019-04-03T21:47:37.869Z,100.00
2019-04-03T21:50:06.631Z,100.00
2019-04-03T21:52:33.743Z,100.00
2019-04-03T21:55:00.804Z,100.00
2019-04-03T21:57:27.978Z,100.00
2019-04-03T21:59:55.157Z,100.00
2019-04-03T22:02:22.294Z,100.00
2019-04-03T22:04:49.406Z,100.00
2019-04-03T22:07:16.578Z,100.00
2019-04-03T22:09:43.666Z,100.00
2019-04-03T22:12:10.730Z,100.00
2019-04-03T22:14:37.805Z,100.00
2019-04-03T22:17:04.910Z,100.00
2019-04-03T22:19:31.989Z,100.00
2019-04-03T22:21:59.061Z,100.00
2019-04-03T22:24:26.144Z,100.00
2019-04-03T22:26:53.197Z,100.00
2019-04-03T22:29:20.597Z,100.00
2019-04-03T22:31:47.763Z,100.00
2019-04-03T22:34:14.878Z,100.00
2019-04-03T22:36:42.097Z,100.00
2019-04-03T22:39:09.601Z,100.00
2019-04-03T22:41:36.760Z,100.00
2019-04-03T22:44:03.956Z,100.00
2019-04-03T22:46:31.141Z,100.00
2019-04-03T22:49:00.127Z,100.00
2019-04-03T22:51:27.413Z,100.00
2019-04-03T22:53:54.506Z,100.00
2019-04-03T22:56:21.688Z,100.00
2019-04-03T22:58:48.785Z,100.00
2019-04-03T23:01:15.969Z,100.00
2019-04-03T23:03:43.081Z,100.00
2019-04-03T23:06:18.801Z,100.00
2019-04-03T23:08:46.546Z,100.00
2019-04-03T23:11:13.617Z,100.00
2019-04-03T23:13:40.738Z,100.00
2019-04-03T23:16:07.906Z,100.00
2019-04-03T23:18:34.968Z,100.00
2019-04-03T23:21:02.153Z,100.00
2019-04-03T23:23:29.198Z,100.00
2019-04-03T23:25:56.303Z,100.00
2019-04-03T23:28:23.398Z,100.00
2019-04-03T23:30:50.577Z,100.00
2019-04-03T23:33:17.709Z,100.00
2019-04-03T23:35:44.827Z,100.00
2019-04-03T23:38:11.891Z,100.00
2019-04-03T23:40:38.958Z,100.00
2019-04-03T23:43:08.556Z,100.00
2019-04-03T23:45:35.035Z,100.00
2019-04-03T23:48:02.103Z,100.00
2019-04-03T23:50:29.175Z,100.00
2019-04-03T23:52:56.326Z,100.00
2019-04-03T23:55:23.420Z,100.00
2019-04-03T23:57:50.476Z,100.00
